createdAt,value
2023-03-24T00:00:09.595Z,10.26
2023-03-24T00:01:10.371Z,9.51
2023-03-24T00:02:11.123Z,9.83
2023-03-24T00:03:11.950Z,9.88
2023-03-24T00:04:12.761Z,9.78
2023-03-24T00:05:13.457Z,9.40
2023-03-24T00:06:14.168Z,9.72
2023-03-24T00:07:14.874Z,9.35
2023-03-24T00:08:15.599Z,9.35
2023-03-24T00:09:16.300Z,9.72
2023-03-24T00:10:17.002Z,9.61
2023-03-24T00:11:17.709Z,9.88
2023-03-24T00:12:18.411Z,9.35
2023-03-24T00:13:19.113Z,9.29
2023-03-24T00:14:19.819Z,9.83
2023-03-24T00:15:20.685Z,9.29
2023-03-24T00:16:21.401Z,9.40
2023-03-24T00:17:22.078Z,9.51
2023-03-24T00:18:22.788Z,9.35
2023-03-24T00:19:23.483Z,9.13
2023-03-24T00:20:24.201Z,9.67
2023-03-24T00:21:25.090Z,9.18
2023-03-24T00:22:25.776Z,9.35
2023-03-24T00:23:26.477Z,9.13
2023-03-24T00:24:27.176Z,9.45
2023-03-24T00:25:27.893Z,9.51
2023-03-24T00:26:28.877Z,9.13
2023-03-24T00:27:29.575Z,9.29
2023-03-24T00:28:30.282Z,9.13
2023-03-24T00:29:30.984Z,8.59
2023-03-24T00:30:31.745Z,9.13
2023-03-24T00:31:32.906Z,8.86
2023-03-24T00:32:33.110Z,8.97
2023-03-24T00:33:33.794Z,8.92
2023-03-24T00:34:34.490Z,8.92
2023-03-24T00:35:35.221Z,8.92
2023-03-24T00:36:35.913Z,8.70
2023-03-24T00:37:36.621Z,8.75
2023-03-24T00:38:37.324Z,8.49
2023-03-24T00:39:38.035Z,8.16
2023-03-24T00:40:38.746Z,8.54
2023-03-24T00:41:39.447Z,8.16
2023-03-24T00:44:28.986Z,8.00
2023-03-24T00:45:29.787Z,7.73
2023-03-24T00:46:30.928Z,8.00
2023-03-24T00:47:31.192Z,7.63
2023-03-24T00:48:31.876Z,8.11
2023-03-24T00:49:32.578Z,8.11
2023-03-24T00:50:33.299Z,7.41
2023-03-24T00:51:34.005Z,7.41
2023-03-24T00:52:35.205Z,7.90
2023-03-24T00:53:35.403Z,7.73
2023-03-24T00:54:36.106Z,7.73
2023-03-24T00:55:36.819Z,7.41
2023-03-24T00:56:37.596Z,7.52
2023-03-24T00:57:38.477Z,7.14
2023-03-24T00:59:00.188Z,7.30
2023-03-24T00:59:39.883Z,6.82
2023-03-24T01:00:40.616Z,6.82
2023-03-24T01:01:41.623Z,7.09
2023-03-24T01:02:41.887Z,7.30
2023-03-24T01:03:42.570Z,6.77
2023-03-24T01:04:43.268Z,6.61
2023-03-24T01:05:43.976Z,6.93
2023-03-24T01:06:44.684Z,6.39
2023-03-24T01:07:45.691Z,6.50
2023-03-24T01:08:45.908Z,6.93
2023-03-24T01:09:46.611Z,6.55
2023-03-24T01:10:47.367Z,6.71
2023-03-24T01:11:48.063Z,7.04
2023-03-24T01:12:48.755Z,6.82
2023-03-24T01:13:49.447Z,7.09
2023-03-24T01:14:50.158Z,6.88
2023-03-24T01:15:50.856Z,6.98
2023-03-24T01:16:51.608Z,6.77
2023-03-24T01:17:52.268Z,6.82
2023-03-24T01:18:52.969Z,7.30
2023-03-24T01:21:42.693Z,7.20
2023-03-24T01:22:43.397Z,7.30
2023-03-24T01:23:44.120Z,7.30
2023-03-24T01:24:44.826Z,7.36
2023-03-24T01:25:45.532Z,7.41
2023-03-24T01:26:46.250Z,7.30
2023-03-24T01:27:46.945Z,6.71
2023-03-24T01:28:47.719Z,6.82
2023-03-24T01:29:48.408Z,6.61
2023-03-24T01:30:49.114Z,6.93
2023-03-24T01:31:49.849Z,6.61
2023-03-24T01:32:50.888Z,6.61
2023-03-24T01:33:51.202Z,6.55
2023-03-24T01:34:51.912Z,7.14
2023-03-24T01:35:52.668Z,7.04
2023-03-24T01:36:53.314Z,6.88
2023-03-24T01:37:54.023Z,7.04
2023-03-24T01:38:55.203Z,7.68
2023-03-24T01:39:55.432Z,7.41
2023-03-24T01:40:56.112Z,8.33
2023-03-24T01:41:56.827Z,9.29
2023-03-24T01:42:57.586Z,9.94
2023-03-24T01:43:58.257Z,11.39
2023-03-24T01:44:58.961Z,12.25
2023-03-24T01:45:59.692Z,12.89
2023-03-24T01:47:00.372Z,13.05
2023-03-24T01:48:01.247Z,13.05
2023-03-24T01:49:01.919Z,13.64
2023-03-24T01:50:02.627Z,13.59
2023-03-24T01:51:03.343Z,13.96
2023-03-24T01:52:04.035Z,14.34
2023-03-24T01:53:04.745Z,14.18
2023-03-24T01:54:05.706Z,13.75
2023-03-24T01:55:06.417Z,13.91
2023-03-24T01:56:07.125Z,13.21
2023-03-24T01:57:07.835Z,13.54
2023-03-24T01:58:08.523Z,13.48
2023-03-24T01:59:09.235Z,13.59
2023-03-24T02:00:09.937Z,12.41
2023-03-24T02:01:10.654Z,12.62
2023-03-24T02:02:11.361Z,11.87
2023-03-24T02:03:12.084Z,11.71
2023-03-24T02:04:12.930Z,11.44
2023-03-24T02:05:13.604Z,11.06
2023-03-24T02:06:14.301Z,11.01
2023-03-24T02:07:15.014Z,10.63
2023-03-24T02:08:15.732Z,10.69
2023-03-24T02:09:16.444Z,10.37
2023-03-24T02:10:17.160Z,10.21
2023-03-24T02:11:17.863Z,10.10
2023-03-24T02:12:18.566Z,9.99
2023-03-24T02:13:19.274Z,9.88
2023-03-24T02:14:19.988Z,9.88
2023-03-24T02:15:20.715Z,9.35
2023-03-24T02:16:21.448Z,9.02
2023-03-24T02:17:22.110Z,9.29
2023-03-24T02:18:22.868Z,9.29
2023-03-24T02:19:24.932Z,9.02
2023-03-24T02:20:24.431Z,9.08
2023-03-24T02:21:25.137Z,8.54
2023-03-24T02:22:25.861Z,8.38
2023-03-24T02:23:26.562Z,8.33
2023-03-24T02:24:27.290Z,8.38
2023-03-24T02:25:28.004Z,8.54
2023-03-24T02:26:28.701Z,8.27
2023-03-24T02:27:29.405Z,8.70
2023-03-24T02:28:30.120Z,8.43
2023-03-24T02:29:30.824Z,8.00
2023-03-24T02:30:31.528Z,7.95
2023-03-24T02:31:32.303Z,8.49
2023-03-24T02:32:32.971Z,8.16
2023-03-24T02:33:33.702Z,8.49
2023-03-24T02:34:34.374Z,8.54
2023-03-24T02:35:35.115Z,8.22
2023-03-24T02:36:35.802Z,8.70
2023-03-24T02:37:36.502Z,9.08
2023-03-24T02:38:37.202Z,8.97
2023-03-24T02:39:38.233Z,9.40
2023-03-24T02:40:38.424Z,9.35
2023-03-24T02:42:00.151Z,9.72
2023-03-24T02:42:39.835Z,11.44
2023-03-24T02:43:40.537Z,13.00
2023-03-24T02:44:41.252Z,14.13
2023-03-24T02:45:41.990Z,14.39
2023-03-24T02:46:42.654Z,15.04
2023-03-24T02:47:43.404Z,15.84
2023-03-24T02:48:44.126Z,16.49
2023-03-24T02:49:45.219Z,16.27
2023-03-24T02:50:45.735Z,16.49
2023-03-24T02:51:46.078Z,16.17
2023-03-24T02:52:46.782Z,16.38
2023-03-24T02:53:47.572Z,15.74
2023-03-24T02:54:48.714Z,15.90
2023-03-24T02:55:48.933Z,15.79
2023-03-24T02:56:49.671Z,15.84
2023-03-24T02:57:50.381Z,14.99
2023-03-24T02:58:51.074Z,15.47
2023-03-24T02:59:52.224Z,14.61
2023-03-24T03:00:52.432Z,14.02
2023-03-24T03:01:53.188Z,13.80
2023-03-24T03:02:53.936Z,14.02
2023-03-24T03:03:54.712Z,13.11
2023-03-24T03:05:16.715Z,13.54
2023-03-24T03:05:55.929Z,13.00
2023-03-24T03:06:56.647Z,11.87
2023-03-24T03:07:57.344Z,12.19
2023-03-24T03:08:58.061Z,12.03
2023-03-24T03:09:58.766Z,11.60
2023-03-24T03:10:59.468Z,10.53
2023-03-24T03:12:00.168Z,10.53
2023-03-24T03:13:00.874Z,10.21
2023-03-24T03:14:01.584Z,9.56
2023-03-24T03:15:02.294Z,9.56
2023-03-24T03:16:03.254Z,9.35
2023-03-24T03:17:03.917Z,9.83
2023-03-24T03:18:04.657Z,9.13
2023-03-24T03:19:05.373Z,9.51
2023-03-24T03:20:06.008Z,9.51
2023-03-24T03:21:06.739Z,9.29
2023-03-24T03:22:07.444Z,9.08
2023-03-24T03:23:08.140Z,8.59
2023-03-24T03:24:29.890Z,8.43
2023-03-24T03:25:09.577Z,8.65
2023-03-24T03:26:10.300Z,8.33
2023-03-24T03:27:11.006Z,8.06
2023-03-24T03:28:11.718Z,8.33
2023-03-24T03:29:12.414Z,7.79
2023-03-24T03:30:13.122Z,7.68
2023-03-24T03:31:13.927Z,7.63
2023-03-24T03:32:14.566Z,8.06
2023-03-24T03:33:15.312Z,7.41
2023-03-24T03:34:16.026Z,7.25
2023-03-24T03:35:16.674Z,7.36
2023-03-24T03:36:17.417Z,6.98
2023-03-24T03:37:18.113Z,7.30
2023-03-24T03:38:18.804Z,7.14
2023-03-24T03:39:19.502Z,6.93
2023-03-24T03:40:20.219Z,6.77
2023-03-24T03:41:21.227Z,7.36
2023-03-24T03:42:21.434Z,7.14
2023-03-24T03:43:22.141Z,6.50
2023-03-24T03:44:22.846Z,6.45
2023-03-24T03:47:12.376Z,6.66
2023-03-24T03:48:13.105Z,6.66
2023-03-24T03:49:13.793Z,6.45
2023-03-24T03:50:14.537Z,6.98
2023-03-24T03:51:15.211Z,6.34
2023-03-24T03:52:16.091Z,6.82
2023-03-24T03:53:16.791Z,6.93
2023-03-24T03:54:17.507Z,6.88
2023-03-24T03:55:18.201Z,6.77
2023-03-24T03:56:18.905Z,6.55
2023-03-24T03:57:20.092Z,6.71
2023-03-24T03:58:20.298Z,6.71
2023-03-24T03:59:21.194Z,6.77
2023-03-24T04:00:23.603Z,6.55
2023-03-24T04:01:22.680Z,6.39
2023-03-24T04:02:23.405Z,6.71
2023-03-24T04:03:24.291Z,6.50
2023-03-24T04:04:25.041Z,6.55
2023-03-24T04:05:25.778Z,6.61
2023-03-24T04:06:26.415Z,6.77
2023-03-24T04:07:27.129Z,6.50
2023-03-24T04:08:27.849Z,6.50
2023-03-24T04:09:28.554Z,6.18
2023-03-24T04:10:29.258Z,6.98
2023-03-24T04:11:29.959Z,6.55
2023-03-24T04:12:30.674Z,6.71
2023-03-24T04:13:31.491Z,7.14
2023-03-24T04:14:32.131Z,7.20
2023-03-24T04:15:32.833Z,6.66
2023-03-24T04:16:33.601Z,6.88
2023-03-24T04:17:34.268Z,6.98
2023-03-24T04:18:34.954Z,6.98
2023-03-24T04:19:35.660Z,7.25
2023-03-24T04:20:36.408Z,7.57
2023-03-24T04:21:37.044Z,7.20
2023-03-24T04:22:37.758Z,7.47
2023-03-24T04:23:38.453Z,7.79
2023-03-24T04:24:39.156Z,8.49
2023-03-24T04:25:39.864Z,8.06
2023-03-24T04:26:40.564Z,8.27
2023-03-24T04:27:41.290Z,8.86
2023-03-24T04:28:42.008Z,9.13
2023-03-24T04:29:42.702Z,9.24
2023-03-24T04:30:43.401Z,9.56
2023-03-24T04:31:44.209Z,9.72
2023-03-24T04:32:45.124Z,10.85
2023-03-24T04:33:45.828Z,11.44
2023-03-24T04:34:46.523Z,11.49
2023-03-24T04:35:47.383Z,12.19
2023-03-24T04:36:48.055Z,11.82
2023-03-24T04:37:48.782Z,12.25
2023-03-24T04:38:49.472Z,12.68
2023-03-24T04:39:50.175Z,12.41
2023-03-24T04:40:50.879Z,12.46
2023-03-24T04:41:51.593Z,13.64
2023-03-24T04:42:52.775Z,14.61
2023-03-24T04:43:53.006Z,16.49
2023-03-24T04:44:53.713Z,17.46
2023-03-24T04:45:54.428Z,18.91
2023-03-24T04:46:55.108Z,22.88
2023-03-24T04:47:56.109Z,27.93
2023-03-24T04:48:56.801Z,36.31
2023-03-24T04:49:57.510Z,40.34
2023-03-24T04:50:58.256Z,40.18
2023-03-24T04:51:58.923Z,42.11
2023-03-24T04:53:00.127Z,42.11
2023-03-24T04:54:00.306Z,39.80
2023-03-24T04:55:01.008Z,40.18
2023-03-24T04:56:01.717Z,38.78
2023-03-24T04:57:02.457Z,39.21
2023-03-24T04:58:03.133Z,36.85
2023-03-24T04:59:03.844Z,36.20
2023-03-24T05:00:04.551Z,35.29
2023-03-24T05:01:05.285Z,35.66
2023-03-24T05:02:05.972Z,33.09
2023-03-24T05:03:06.701Z,32.01
2023-03-24T05:04:07.399Z,32.07
2023-03-24T05:05:08.090Z,30.88
2023-03-24T05:06:08.832Z,31.37
2023-03-24T05:07:09.491Z,29.38
2023-03-24T05:08:31.224Z,29.54
2023-03-24T05:09:10.923Z,28.79
2023-03-24T05:10:11.602Z,27.88
2023-03-24T05:11:12.303Z,23.90
2023-03-24T05:12:13.030Z,21.65
2023-03-24T05:13:13.709Z,20.36
2023-03-24T05:14:14.420Z,20.03
2023-03-24T05:15:15.118Z,19.34
2023-03-24T05:16:15.863Z,18.48
2023-03-24T05:17:16.525Z,17.99
2023-03-24T05:18:17.237Z,16.60
2023-03-24T05:19:17.955Z,16.22
2023-03-24T05:20:18.658Z,15.20
2023-03-24T05:21:19.402Z,13.64
2023-03-24T05:22:20.062Z,13.54
2023-03-24T05:23:20.773Z,12.73
2023-03-24T05:24:21.518Z,11.55
2023-03-24T05:25:22.236Z,10.53
2023-03-24T05:26:43.931Z,10.31
2023-03-24T05:27:23.626Z,9.94
2023-03-24T05:28:24.341Z,9.35
2023-03-24T05:29:25.122Z,9.72
2023-03-24T05:30:25.868Z,9.13
2023-03-24T05:31:26.525Z,9.29
2023-03-24T05:32:27.302Z,8.75
2023-03-24T05:33:28.024Z,8.65
2023-03-24T05:34:28.734Z,8.54
2023-03-24T05:35:29.464Z,8.70
2023-03-24T05:36:30.309Z,8.16
2023-03-24T05:37:30.952Z,8.70
2023-03-24T05:38:31.646Z,8.43
2023-03-24T05:39:32.376Z,8.27
2023-03-24T05:40:33.089Z,7.95
2023-03-24T05:41:33.809Z,7.90
2023-03-24T05:42:34.521Z,6.98
2023-03-24T05:43:35.208Z,6.77
2023-03-24T05:44:35.944Z,6.93
2023-03-24T05:45:36.661Z,7.30
2023-03-24T05:46:37.378Z,6.71
2023-03-24T05:47:38.105Z,6.39
2023-03-24T05:48:38.851Z,6.55
2023-03-24T05:49:39.740Z,6.88
2023-03-24T05:50:40.277Z,6.23
2023-03-24T05:51:41.136Z,6.71
2023-03-24T05:52:41.804Z,6.55
2023-03-24T05:53:42.510Z,6.77
2023-03-24T05:54:50.626Z,6.45
2023-03-24T05:55:51.822Z,6.23
2023-03-24T05:58:45.129Z,5.80
2023-03-24T05:59:52.892Z,6.02
2023-03-24T06:04:43.175Z,6.23
2023-03-24T06:05:50.986Z,5.69
2023-03-24T06:06:51.775Z,5.64
2023-03-24T06:07:52.513Z,6.02
2023-03-24T06:12:23.536Z,5.80
2023-03-24T06:13:31.268Z,5.48
2023-03-24T06:14:32.151Z,5.26
2023-03-24T06:15:25.647Z,5.42
2023-03-24T06:16:26.434Z,5.69
2023-03-24T06:17:26.978Z,5.32
2023-03-24T06:18:27.640Z,5.64
2023-03-24T06:19:28.344Z,4.89
2023-03-24T06:20:29.064Z,4.78
2023-03-24T06:21:29.757Z,4.89
2023-03-24T06:22:30.506Z,5.21
2023-03-24T06:23:31.229Z,4.67
2023-03-24T06:24:31.917Z,4.51
2023-03-24T06:25:32.624Z,5.21
2023-03-24T06:26:33.330Z,5.26
2023-03-24T06:27:34.044Z,5.21
2023-03-24T06:28:34.793Z,4.94
2023-03-24T06:29:35.465Z,5.00
2023-03-24T06:30:36.161Z,5.00
2023-03-24T06:31:36.945Z,4.94
2023-03-24T06:32:37.807Z,5.00
2023-03-24T06:33:38.480Z,4.94
2023-03-24T06:34:39.186Z,4.73
2023-03-24T06:35:39.942Z,4.46
2023-03-24T06:36:40.650Z,4.78
2023-03-24T06:37:41.807Z,4.24
2023-03-24T06:38:41.971Z,4.78
2023-03-24T06:39:42.651Z,4.78
2023-03-24T06:40:43.449Z,4.62
2023-03-24T06:41:44.093Z,4.62
2023-03-24T06:42:44.799Z,4.57
2023-03-24T06:43:45.506Z,4.08
2023-03-24T06:44:46.222Z,4.57
2023-03-24T06:45:47.134Z,4.62
2023-03-24T06:46:47.967Z,4.51
2023-03-24T06:47:48.683Z,4.40
2023-03-24T06:48:49.411Z,3.92
2023-03-24T06:49:50.065Z,3.87
2023-03-24T06:50:50.768Z,3.87
2023-03-24T06:51:51.480Z,4.40
2023-03-24T06:52:52.205Z,3.71
2023-03-24T06:53:52.909Z,3.76
2023-03-24T06:54:53.607Z,3.76
2023-03-24T06:55:54.313Z,4.24
2023-03-24T06:56:55.063Z,4.24
2023-03-24T06:57:55.784Z,4.19
2023-03-24T06:59:24.256Z,4.19
2023-03-24T06:59:57.467Z,4.19
2023-03-24T07:00:58.168Z,3.71
2023-03-24T07:01:58.903Z,4.19
2023-03-24T07:02:59.689Z,3.71
2023-03-24T07:04:00.455Z,4.03
2023-03-24T07:05:01.105Z,3.76
2023-03-24T07:06:01.809Z,4.03
2023-03-24T07:07:27.817Z,3.87
2023-03-24T07:08:27.874Z,3.49
2023-03-24T07:09:04.943Z,3.60
2023-03-24T07:10:04.598Z,3.60
2023-03-24T07:11:05.298Z,3.76
2023-03-24T07:12:06.002Z,3.97
2023-03-24T07:13:06.711Z,4.03
2023-03-24T07:14:07.420Z,3.65
2023-03-24T07:15:08.132Z,3.76
2023-03-24T07:16:08.869Z,4.03
2023-03-24T07:17:09.541Z,3.33
2023-03-24T07:18:10.297Z,3.54
2023-03-24T07:19:10.969Z,3.97
2023-03-24T07:20:11.695Z,3.65
2023-03-24T07:21:12.381Z,3.33
2023-03-24T07:22:13.102Z,3.38
2023-03-24T07:23:13.827Z,3.44
2023-03-24T07:24:14.546Z,3.81
2023-03-24T07:25:15.230Z,3.49
2023-03-24T07:26:15.932Z,3.87
2023-03-24T07:27:16.660Z,3.81
2023-03-24T07:28:17.769Z,3.76
2023-03-24T07:29:18.003Z,3.38
2023-03-24T07:30:24.214Z,3.54
2023-03-24T07:31:20.335Z,3.17
2023-03-24T07:32:20.024Z,3.38
2023-03-24T07:33:41.754Z,3.12
2023-03-24T07:34:21.482Z,3.65
2023-03-24T07:35:22.177Z,3.12
2023-03-24T07:36:22.926Z,3.65
2023-03-24T07:37:23.625Z,3.65
2023-03-24T07:38:24.348Z,3.17
2023-03-24T07:39:25.062Z,2.95
2023-03-24T07:40:25.749Z,3.49
2023-03-24T07:41:26.456Z,3.22
2023-03-24T07:42:27.173Z,3.44
2023-03-24T07:43:27.876Z,3.38
2023-03-24T07:44:28.593Z,3.12
2023-03-24T07:45:29.323Z,3.06
2023-03-24T07:46:30.039Z,3.44
2023-03-24T07:47:30.740Z,3.06
2023-03-24T07:48:31.423Z,2.95
2023-03-24T07:49:32.140Z,2.95
2023-03-24T07:50:32.854Z,2.95
2023-03-24T07:51:37.068Z,2.95
2023-03-24T07:54:24.263Z,3.44
2023-03-24T07:55:24.924Z,2.95
2023-03-24T07:56:49.278Z,2.95
2023-03-24T07:57:26.453Z,3.22
2023-03-24T07:58:27.163Z,3.06
2023-03-24T07:59:28.025Z,2.95
2023-03-24T08:00:28.731Z,3.06
2023-03-24T08:01:29.434Z,3.28
2023-03-24T08:02:30.248Z,2.74
2023-03-24T08:03:31.014Z,2.79
2023-03-24T08:04:31.763Z,3.22
2023-03-24T08:05:32.460Z,2.79
2023-03-24T08:06:33.167Z,2.95
2023-03-24T08:07:33.873Z,2.74
2023-03-24T08:08:34.579Z,2.79
2023-03-24T08:09:35.301Z,2.90
2023-03-24T08:10:36.010Z,2.58
2023-03-24T08:11:36.685Z,2.79
2023-03-24T08:12:58.395Z,2.74
2023-03-24T08:13:38.095Z,3.06
2023-03-24T08:14:38.810Z,2.95
2023-03-24T08:15:39.511Z,2.79
2023-03-24T08:16:40.250Z,2.74
2023-03-24T08:17:40.944Z,2.58
2023-03-24T08:18:41.632Z,2.58
2023-03-24T08:19:56.146Z,2.58
2023-03-24T08:20:44.233Z,2.85
2023-03-24T08:21:43.896Z,2.95
2023-03-24T08:22:44.608Z,3.01
2023-03-24T08:23:45.307Z,2.58
2023-03-24T08:24:46.046Z,3.01
2023-03-24T08:25:47.390Z,2.74
2023-03-24T08:26:47.633Z,2.52
2023-03-24T08:27:48.343Z,3.06
2023-03-24T08:28:49.041Z,2.69
2023-03-24T08:29:49.758Z,2.95
2023-03-24T08:30:51.061Z,2.79
2023-03-24T08:31:51.543Z,2.52
2023-03-24T08:32:52.262Z,2.58
2023-03-24T08:33:52.949Z,2.85
2023-03-24T08:36:42.707Z,2.58
2023-03-24T08:37:43.417Z,2.52
2023-03-24T08:38:44.119Z,2.42
2023-03-24T08:39:44.834Z,2.42
2023-03-24T08:40:45.574Z,2.36
2023-03-24T08:41:46.275Z,2.85
2023-03-24T08:42:46.955Z,2.36
2023-03-24T08:43:47.648Z,2.52
2023-03-24T08:44:48.351Z,2.79
2023-03-24T08:45:49.157Z,2.85
2023-03-24T08:46:50.215Z,2.42
2023-03-24T08:47:50.570Z,2.85
2023-03-24T08:48:51.296Z,2.85
2023-03-24T08:49:52.003Z,2.58
2023-03-24T08:50:52.720Z,2.74
2023-03-24T08:51:53.702Z,2.74
2023-03-24T08:52:55.748Z,2.58
2023-03-24T08:53:55.296Z,2.52
2023-03-24T08:54:56.010Z,2.36
2023-03-24T08:55:56.814Z,2.85
2023-03-24T08:56:57.564Z,2.74
2023-03-24T08:58:26.196Z,2.85
2023-03-24T08:58:58.890Z,2.69
2023-03-24T08:59:59.606Z,2.63
2023-03-24T09:01:00.295Z,2.74
2023-03-24T09:02:01.034Z,2.58
2023-03-24T09:03:01.793Z,2.36
2023-03-24T09:04:02.492Z,2.52
2023-03-24T09:05:03.257Z,2.26
2023-03-24T09:06:03.989Z,2.69
2023-03-24T09:07:04.720Z,2.47
2023-03-24T09:08:05.423Z,2.36
2023-03-24T09:09:06.120Z,2.63
2023-03-24T09:10:06.818Z,2.52
2023-03-24T09:11:07.550Z,2.15
2023-03-24T09:12:08.253Z,2.36
2023-03-24T09:13:08.938Z,2.69
2023-03-24T09:14:09.643Z,2.52
2023-03-24T09:15:11.762Z,2.20
2023-03-24T09:16:11.361Z,2.20
2023-03-24T09:17:33.748Z,2.52
2023-03-24T09:18:12.945Z,2.26
2023-03-24T09:19:13.641Z,2.20
2023-03-24T09:20:14.356Z,2.63
2023-03-24T09:21:15.059Z,2.20
2023-03-24T09:22:15.804Z,2.42
2023-03-24T09:23:16.702Z,2.26
2023-03-24T09:24:17.401Z,2.36
2023-03-24T09:25:18.159Z,2.20
2023-03-24T09:26:18.872Z,2.26
2023-03-24T09:27:19.568Z,2.15
2023-03-24T09:28:20.698Z,2.58
2023-03-24T09:29:20.904Z,2.20
2023-03-24T09:30:21.601Z,2.15
2023-03-24T09:31:22.363Z,2.20
2023-03-24T09:32:23.059Z,2.63
2023-03-24T09:33:24.223Z,1.99
2023-03-24T09:34:24.398Z,2.47
2023-03-24T09:35:25.134Z,2.47
2023-03-24T09:36:25.825Z,2.26
2023-03-24T09:37:26.530Z,2.09
2023-03-24T09:38:27.261Z,2.47
2023-03-24T09:41:16.996Z,1.99
2023-03-24T09:42:17.721Z,2.26
2023-03-24T09:43:18.423Z,1.99
2023-03-24T09:44:19.100Z,2.47
2023-03-24T09:45:19.834Z,2.15
2023-03-24T09:46:20.544Z,2.42
2023-03-24T09:47:21.232Z,1.99
2023-03-24T09:48:21.940Z,1.99
2023-03-24T09:49:22.649Z,2.36
2023-03-24T09:50:23.352Z,1.93
2023-03-24T09:51:24.061Z,2.15
2023-03-24T09:52:24.766Z,2.42
2023-03-24T09:53:25.469Z,2.15
2023-03-24T09:54:26.184Z,2.20
2023-03-24T09:55:26.919Z,1.83
2023-03-24T09:56:27.690Z,1.88
2023-03-24T09:57:28.370Z,2.36
2023-03-24T09:58:29.165Z,1.83
2023-03-24T09:59:30.009Z,2.31
2023-03-24T10:00:30.777Z,1.88
2023-03-24T10:01:31.473Z,1.83
2023-03-24T10:02:32.297Z,2.09
2023-03-24T10:03:33.192Z,2.31
2023-03-24T10:04:33.907Z,1.77
2023-03-24T10:05:34.615Z,2.09
2023-03-24T10:06:35.316Z,1.88
2023-03-24T10:07:36.027Z,2.26
2023-03-24T10:08:36.720Z,1.93
2023-03-24T10:09:37.470Z,1.93
2023-03-24T10:10:38.184Z,1.83
2023-03-24T10:11:38.885Z,2.04
2023-03-24T10:12:39.613Z,1.93
2023-03-24T10:13:40.405Z,1.83
2023-03-24T10:14:41.031Z,1.99
2023-03-24T10:15:41.733Z,1.88
2023-03-24T10:16:42.472Z,2.09
2023-03-24T10:17:43.207Z,2.26
2023-03-24T10:18:43.882Z,1.83
2023-03-24T10:19:44.597Z,2.04
2023-03-24T10:20:45.298Z,1.77
2023-03-24T10:21:46.005Z,1.93
2023-03-24T10:22:46.709Z,1.61
2023-03-24T10:23:47.425Z,2.04
2023-03-24T10:24:48.162Z,1.61
2023-03-24T10:25:49.069Z,1.67
2023-03-24T10:26:49.356Z,2.09
2023-03-24T10:27:50.112Z,1.67
2023-03-24T10:28:50.790Z,1.67
2023-03-24T10:29:51.527Z,1.67
2023-03-24T10:30:52.232Z,1.99
2023-03-24T10:31:53.002Z,1.67
2023-03-24T10:32:53.670Z,2.09
2023-03-24T10:33:54.366Z,1.93
2023-03-24T10:34:55.528Z,1.83
2023-03-24T10:35:55.765Z,1.67
2023-03-24T10:36:56.442Z,1.56
2023-03-24T10:37:57.349Z,1.67
2023-03-24T10:39:01.898Z,1.67
2023-03-24T10:40:00.047Z,1.67
2023-03-24T10:40:59.245Z,1.88
2023-03-24T10:41:59.950Z,1.83
2023-03-24T10:43:07.041Z,1.93
2023-03-24T10:44:30.036Z,1.77
2023-03-24T10:45:02.239Z,1.72
2023-03-24T10:46:02.959Z,1.67
2023-03-24T10:47:03.635Z,1.45
2023-03-24T10:48:04.421Z,1.40
2023-03-24T10:49:05.130Z,2.04
2023-03-24T10:50:12.541Z,1.72
2023-03-24T10:51:07.634Z,1.50
2023-03-24T10:52:07.336Z,1.45
2023-03-24T10:53:08.049Z,1.45
2023-03-24T10:54:08.748Z,1.88
2023-03-24T10:55:09.540Z,1.45
2023-03-24T10:56:10.244Z,1.72
2023-03-24T10:57:11.019Z,1.83
2023-03-24T10:58:11.697Z,1.88
2023-03-24T10:59:12.388Z,1.45
2023-03-24T11:00:13.625Z,1.24
2023-03-24T11:01:13.785Z,1.83
2023-03-24T11:02:14.514Z,1.40
2023-03-24T11:03:15.343Z,1.34
2023-03-24T11:04:16.064Z,1.50
2023-03-24T11:05:17.545Z,1.88
2023-03-24T11:06:17.756Z,1.45
2023-03-24T11:07:18.475Z,1.29
2023-03-24T11:08:19.178Z,1.34
2023-03-24T11:09:19.881Z,1.67
2023-03-24T11:10:20.593Z,1.67
2023-03-24T11:11:21.304Z,1.29
2023-03-24T11:12:22.011Z,1.29
2023-03-24T11:13:22.730Z,1.56
2023-03-24T11:14:23.427Z,1.34
2023-03-24T11:15:24.152Z,1.13
2023-03-24T11:16:24.878Z,1.29
2023-03-24T11:17:25.599Z,1.45
2023-03-24T11:18:26.266Z,1.45
2023-03-24T11:19:26.962Z,1.34
2023-03-24T11:20:48.677Z,1.45
2023-03-24T11:21:28.370Z,1.45
2023-03-24T11:22:29.078Z,1.61
2023-03-24T11:23:29.786Z,1.40
2023-03-24T11:24:30.487Z,1.34
2023-03-24T11:25:33.808Z,1.24
2023-03-24T11:26:32.038Z,1.02
2023-03-24T11:27:32.746Z,1.24
2023-03-24T11:28:33.479Z,1.13
2023-03-24T11:29:34.157Z,1.07
2023-03-24T11:30:34.935Z,1.45
2023-03-24T11:31:35.641Z,1.29
2023-03-24T11:32:36.348Z,1.50
2023-03-24T11:33:37.069Z,1.13
2023-03-24T11:34:37.774Z,1.40
2023-03-24T11:35:42.657Z,1.45
2023-03-24T11:36:39.628Z,1.13
2023-03-24T11:37:39.812Z,1.45
2023-03-24T11:38:40.513Z,1.24
2023-03-24T11:39:41.218Z,1.07
2023-03-24T11:40:41.929Z,1.07
2023-03-24T11:41:43.058Z,1.45
2023-03-24T11:42:45.386Z,1.07
2023-03-24T11:44:05.070Z,0.91
2023-03-24T11:44:44.537Z,1.13
2023-03-24T11:45:45.260Z,1.07
2023-03-24T11:46:45.969Z,1.45
2023-03-24T11:47:46.682Z,0.97
2023-03-24T11:48:47.352Z,1.24
2023-03-24T11:49:48.092Z,1.24
2023-03-24T11:50:48.798Z,0.91
2023-03-24T11:51:49.545Z,0.86
2023-03-24T11:52:50.263Z,1.18
2023-03-24T11:53:50.965Z,1.13
2023-03-24T11:54:51.673Z,1.24
2023-03-24T11:55:52.382Z,0.86
2023-03-24T11:56:53.567Z,1.18
2023-03-24T11:57:53.748Z,0.97
2023-03-24T11:58:54.448Z,1.40
2023-03-24T11:59:55.197Z,0.97
2023-03-24T12:00:55.899Z,1.18
2023-03-24T12:01:57.062Z,1.45
2023-03-24T12:02:57.293Z,1.29
2023-03-24T12:03:58.052Z,1.24
2023-03-24T12:04:58.786Z,1.13
2023-03-24T12:06:20.531Z,0.91
2023-03-24T12:07:00.550Z,1.24
2023-03-24T12:08:00.762Z,1.24
2023-03-24T12:09:01.464Z,0.91
2023-03-24T12:10:02.161Z,0.91
2023-03-24T12:11:02.975Z,1.07
2023-03-24T12:12:07.791Z,1.07
2023-03-24T12:13:04.609Z,1.18
2023-03-24T12:14:05.320Z,1.24
2023-03-24T12:15:14.417Z,0.97
2023-03-24T12:16:07.792Z,1.07
2023-03-24T12:17:07.566Z,1.07
2023-03-24T12:18:08.328Z,0.91
2023-03-24T12:19:08.975Z,1.13
2023-03-24T12:20:09.681Z,1.13
2023-03-24T12:21:10.387Z,1.18
2023-03-24T12:22:11.552Z,1.24
2023-03-24T12:23:11.755Z,1.24
2023-03-24T12:24:12.465Z,0.91
2023-03-24T12:25:13.172Z,0.75
2023-03-24T12:26:13.876Z,0.75
2023-03-24T12:27:35.580Z,1.24
2023-03-24T12:28:15.279Z,1.24
2023-03-24T12:29:15.979Z,1.18
2023-03-24T12:30:16.700Z,1.02
2023-03-24T12:31:17.450Z,0.75
2023-03-24T12:32:18.106Z,0.97
2023-03-24T12:33:19.057Z,0.81
2023-03-24T12:34:19.804Z,0.91
2023-03-24T12:35:21.057Z,0.75
2023-03-24T12:36:21.204Z,0.75
2023-03-24T12:37:22.015Z,1.02
2023-03-24T12:38:23.056Z,0.70
2023-03-24T12:39:23.258Z,0.75
2023-03-24T12:40:24.042Z,1.02
2023-03-24T12:41:25.264Z,0.70
2023-03-24T12:42:25.404Z,0.70
2023-03-24T12:43:26.571Z,1.07
2023-03-24T12:44:26.776Z,1.07
2023-03-24T12:47:16.576Z,1.02
2023-03-24T12:48:17.203Z,1.02
2023-03-24T12:49:18.020Z,1.02
2023-03-24T12:50:18.724Z,0.54
2023-03-24T12:51:19.429Z,0.75
2023-03-24T12:52:20.136Z,0.75
2023-03-24T12:53:20.838Z,0.81
2023-03-24T12:54:22.020Z,0.81
2023-03-24T12:55:22.225Z,0.54
2023-03-24T12:56:22.953Z,0.64
2023-03-24T12:57:23.651Z,0.75
2023-03-24T12:58:24.360Z,0.64
2023-03-24T12:59:25.072Z,0.59
2023-03-24T13:00:46.815Z,0.91
2023-03-24T13:01:26.481Z,0.81
2023-03-24T13:02:27.310Z,0.59
2023-03-24T13:03:27.999Z,0.81
2023-03-24T13:04:29.026Z,0.81
2023-03-24T13:05:29.238Z,0.81
2023-03-24T13:06:29.949Z,0.86
2023-03-24T13:07:30.629Z,0.64
2023-03-24T13:08:31.331Z,0.81
2023-03-24T13:09:32.056Z,0.70
2023-03-24T13:10:32.759Z,0.64
2023-03-24T13:11:33.606Z,0.86
2023-03-24T13:12:34.250Z,0.81
2023-03-24T13:13:34.952Z,0.91
2023-03-24T13:14:35.673Z,0.81
2023-03-24T13:15:36.369Z,0.70
2023-03-24T13:16:37.113Z,0.70
2023-03-24T13:17:38.092Z,0.59
2023-03-24T13:18:38.737Z,0.70
2023-03-24T13:19:39.450Z,0.75
2023-03-24T13:21:16.043Z,0.54
2023-03-24T13:21:40.730Z,0.64
2023-03-24T13:22:41.444Z,0.64
2023-03-24T13:23:42.149Z,0.59
2023-03-24T13:24:42.853Z,0.75
2023-03-24T13:25:43.571Z,0.48
2023-03-24T13:26:44.269Z,0.64
2023-03-24T13:27:44.962Z,0.70
2023-03-24T13:28:45.714Z,0.64
2023-03-24T13:29:49.757Z,0.54
2023-03-24T13:30:47.180Z,0.81
2023-03-24T13:31:47.814Z,0.81
2023-03-24T13:32:48.641Z,0.64
2023-03-24T13:33:49.290Z,0.75
2023-03-24T13:34:50.041Z,0.59
2023-03-24T13:35:53.197Z,0.54
2023-03-24T13:36:51.722Z,0.70
2023-03-24T13:37:52.419Z,0.54
2023-03-24T13:38:53.110Z,0.54
2023-03-24T13:39:53.846Z,0.38
2023-03-24T13:40:54.563Z,0.38
2023-03-24T13:41:55.254Z,0.54
2023-03-24T13:42:55.962Z,0.48
2023-03-24T13:43:56.661Z,0.43
2023-03-24T13:44:57.552Z,0.64
2023-03-24T13:45:58.294Z,0.59